Time;durP1;ratioP1;P1;durP2;ratioP2;P2;SDS_P1;SDS_P2;PMS_P1;PMS_P2;Temp;Humidity;BMP_temperature;BMP_pressure;BME280_temperature;BME280_humidity;BME280_pressure;Samples;Min_cycle;Max_cycle;Signal;HPM_P1;HPM_P2
2022/05/20 00:02:18;;;;;;;44.05;32.72;;;14.00;99.90;;;;;;5055411;28;25058;-60
2022/05/20 00:04:43;;;;;;;47.13;33.42;;;13.90;99.90;;;;;;5055327;28;25151;-60
2022/05/20 00:07:09;;;;;;;48.42;33.50;;;13.90;99.90;;;;;;5055583;28;25100;-60
2022/05/20 00:09:35;;;;;;;51.80;33.97;;;13.80;99.90;;;;;;5059915;28;25151;-60
2022/05/20 00:12:02;;;;;;;50.30;32.97;;;13.80;99.90;;;;;;5061830;28;25073;-60
2022/05/20 00:14:27;;;;;;;46.20;32.50;;;13.90;99.90;;;;;;5055098;28;25057;-60
2022/05/20 00:16:53;;;;;;;42.80;31.63;;;13.90;99.90;;;;;;5054212;28;25062;-60
2022/05/20 00:19:18;;;;;;;48.22;31.33;;;13.90;99.90;;;;;;5053476;28;25059;-59
2022/05/20 00:21:44;;;;;;;43.17;34.08;;;14.00;99.90;;;;;;5053666;28;25052;-59
2022/05/20 00:24:10;;;;;;;43.67;30.85;;;14.00;99.90;;;;;;5056115;28;25058;-60
2022/05/20 00:26:35;;;;;;;42.33;32.70;;;14.10;99.90;;;;;;5051382;28;25105;-59
2022/05/20 00:29:01;;;;;;;50.03;34.28;;;14.00;99.90;;;;;;5052840;28;25109;-60
2022/05/20 00:31:27;;;;;;;49.72;32.25;;;13.90;99.90;;;;;;5052869;28;25102;-61
2022/05/20 00:33:53;;;;;;;37.85;29.75;;;13.90;99.90;;;;;;5054679;28;25067;-60
2022/05/20 00:36:19;;;;;;;45.40;33.03;;;13.90;99.90;;;;;;5055514;28;25079;-60
2022/05/20 00:38:46;;;;;;;44.30;30.63;;;14.00;99.90;;;;;;5055104;28;25049;-59
2022/05/20 00:41:12;;;;;;;42.55;33.35;;;14.00;99.90;;;;;;5055228;28;25132;-60
2022/05/20 00:43:44;;;;;;;43.10;32.00;;;14.00;99.90;;;;;;5055254;28;25055;-60
2022/05/20 00:46:12;;;;;;;44.45;31.50;;;14.00;99.90;;;;;;5055387;28;25062;-60
2022/05/20 00:48:39;;;;;;;46.00;32.35;;;13.90;99.90;;;;;;5052876;28;25061;-60
2022/05/20 00:51:26;;;;;;;46.60;31.52;;;13.90;99.90;;;;;;5053798;28;25081;-61
2022/05/20 00:54:06;;;;;;;45.55;32.05;;;14.00;99.90;;;;;;5051312;28;25139;-60
2022/05/20 00:56:40;;;;;;;40.15;30.15;;;14.00;99.90;;;;;;5052712;28;25149;-60
2022/05/20 00:59:10;;;;;;;47.85;35.55;;;14.00;99.90;;;;;;5052665;28;25073;-60
2022/05/20 01:01:36;;;;;;;42.55;32.72;;;14.00;99.90;;;;;;5052755;28;25068;-60
2022/05/20 01:04:03;;;;;;;46.85;31.67;;;13.90;99.90;;;;;;5050316;28;25127;-59
2022/05/20 01:06:29;;;;;;;43.90;33.03;;;13.80;99.90;;;;;;5052078;28;25065;-59
2022/05/20 01:08:54;;;;;;;48.15;32.45;;;13.70;99.90;;;;;;5051566;28;25052;-60
2022/05/20 01:11:20;;;;;;;48.30;33.50;;;13.70;99.90;;;;;;5053602;28;25120;-60
2022/05/20 01:13:48;;;;;;;47.20;32.78;;;13.70;99.90;;;;;;5045895;28;25129;-59
2022/05/20 01:16:15;;;;;;;47.22;33.03;;;13.70;99.90;;;;;;5050576;28;25072;-60
2022/05/20 01:18:44;;;;;;;51.20;33.40;;;13.70;99.90;;;;;;5046680;28;25178;-59
2022/05/20 01:21:09;;;;;;;51.38;34.35;;;13.70;99.90;;;;;;5052222;28;25084;-59
2022/05/20 01:23:36;;;;;;;46.92;34.55;;;13.70;99.90;;;;;;5052157;28;25157;-60
2022/05/20 01:26:03;;;;;;;52.97;35.72;;;13.60;99.90;;;;;;5054410;28;25146;-60
2022/05/20 01:28:31;;;;;;;53.83;38.08;;;13.60;99.90;;;;;;5054713;28;25134;-60
2022/05/20 01:31:02;;;;;;;58.40;39.55;;;13.60;99.90;;;;;;5054444;28;25063;-60
2022/05/20 01:33:31;;;;;;;53.35;37.00;;;13.60;99.90;;;;;;5052870;28;25157;-60
2022/05/20 01:35:58;;;;;;;55.05;36.67;;;13.60;99.90;;;;;;5053423;28;25069;-60
2022/05/20 01:38:24;;;;;;;52.15;34.85;;;13.60;99.90;;;;;;5051282;28;25099;-60
2022/05/20 01:40:53;;;;;;;48.15;34.92;;;13.60;99.90;;;;;;5053888;28;25092;-60
2022/05/20 01:43:42;;;;;;;47.20;34.45;;;13.50;99.90;;;;;;5054579;28;25106;-60
2022/05/20 01:46:14;;;;;;;51.03;34.55;;;13.40;99.90;;;;;;5056688;28;25098;-60
2022/05/20 01:49:11;;;;;;;52.22;36.90;;;13.50;99.90;;;;;;5061629;28;25058;-60
2022/05/20 01:52:00;;;;;;;48.63;33.95;;;13.50;99.90;;;;;;5058496;28;25080;-60
2022/05/20 01:54:35;;;;;;;48.58;35.65;;;13.50;99.90;;;;;;5059664;28;25083;-60
2022/05/20 01:57:16;;;;;;;57.92;40.05;;;13.50;99.90;;;;;;5059336;28;25063;-60
2022/05/20 01:59:48;;;;;;;46.85;36.80;;;13.50;99.90;;;;;;5056541;28;25144;-60
2022/05/20 02:02:25;;;;;;;;;;;13.50;99.90;;;;;;5058416;28;25052;-60
2022/05/20 02:05:05;;;;;;;49.28;35.08;;;13.50;99.90;;;;;;5057692;28;25051;-61
2022/05/20 02:07:34;;;;;;;53.28;35.95;;;13.60;99.90;;;;;;5057688;28;25058;-60
2022/05/20 02:10:06;;;;;;;50.15;36.90;;;13.50;99.90;;;;;;5057400;28;25162;-61
2022/05/20 02:12:36;;;;;;;44.13;31.70;;;13.50;99.90;;;;;;5054143;28;25079;-60
2022/05/20 02:15:10;;;;;;;45.90;33.65;;;13.50;99.90;;;;;;5056148;28;25132;-61
2022/05/20 02:17:39;;;;;;;54.20;36.75;;;13.40;99.90;;;;;;5057338;28;25074;-60
2022/05/20 02:20:11;;;;;;;49.60;36.70;;;13.40;99.90;;;;;;5057387;28;25067;-60
2022/05/20 02:22:41;;;;;;;47.50;34.53;;;13.40;99.90;;;;;;5056523;28;25056;-59
2022/05/20 02:25:10;;;;;;;43.97;34.20;;;13.30;99.90;;;;;;5057995;28;25064;-61
2022/05/20 02:27:41;;;;;;;44.20;35.28;;;13.30;99.90;;;;;;5056839;28;25070;-60
2022/05/20 02:30:11;;;;;;;50.88;36.78;;;13.30;99.90;;;;;;5057450;28;25124;-61
2022/05/20 02:32:46;;;;;;;51.13;35.55;;;13.30;99.90;;;;;;5055672;28;25082;-60
2022/05/20 02:35:11;;;;;;;50.88;36.28;;;13.30;99.90;;;;;;5057813;28;25069;-59
2022/05/20 02:37:38;;;;;;;56.08;39.10;;;13.30;99.90;;;;;;5057355;28;25060;-59
2022/05/20 02:40:07;;;;;;;51.92;35.92;;;13.30;99.90;;;;;;5055601;28;25146;-60
2022/05/20 02:42:32;;;;;;;52.95;38.97;;;13.30;99.90;;;;;;5056705;28;25084;-60
2022/05/20 02:44:59;;;;;;;60.22;38.10;;;13.30;99.90;;;;;;5058053;28;25082;-61
2022/05/20 02:47:26;;;;;;;55.65;37.35;;;13.20;99.90;;;;;;5056142;28;25155;-61
2022/05/20 02:49:52;;;;;;;60.92;37.40;;;13.20;99.90;;;;;;5057254;28;25119;-60
2022/05/20 02:52:17;;;;;;;54.30;38.30;;;13.10;99.90;;;;;;5056770;28;25060;-61
2022/05/20 02:54:43;;;;;;;64.85;40.30;;;13.00;99.90;;;;;;5055808;28;25092;-60
2022/05/20 02:57:08;;;;;;;67.80;41.15;;;13.00;99.90;;;;;;5058544;28;25130;-60
2022/05/20 03:05:03;;;;;;;59.15;39.88;;;13.10;99.90;;;;;;5056819;28;25100;-60
2022/05/20 03:07:28;;;;;;;63.30;42.45;;;13.10;99.90;;;;;;5054380;28;25075;-60
2022/05/20 03:09:54;;;;;;;63.05;41.53;;;13.10;99.90;;;;;;5056934;28;25147;-60
2022/05/20 03:12:19;;;;;;;64.05;39.67;;;13.10;99.90;;;;;;5056463;28;25112;-60
2022/05/20 03:14:45;;;;;;;60.38;41.35;;;13.00;99.90;;;;;;5055298;28;25069;-60
2022/05/20 03:17:11;;;;;;;76.90;46.03;;;13.10;99.90;;;;;;5055056;28;25158;-61
2022/05/20 03:19:37;;;;;;;70.40;45.30;;;13.10;99.90;;;;;;5056602;28;25173;-60
2022/05/20 03:22:04;;;;;;;64.47;41.70;;;13.10;99.90;;;;;;5054846;28;25138;-60
2022/05/20 03:24:30;;;;;;;60.33;42.13;;;13.10;99.90;;;;;;5059177;28;25102;-61
2022/05/20 03:26:56;;;;;;;75.88;46.92;;;13.20;99.90;;;;;;5063987;28;25108;-60
2022/05/20 03:29:22;;;;;;;78.80;45.42;;;13.10;99.90;;;;;;5056528;28;25102;-60
2022/05/20 03:31:48;;;;;;;83.00;53.53;;;13.10;99.90;;;;;;5054856;28;25047;-61
2022/05/20 03:34:14;;;;;;;78.70;49.60;;;13.20;99.90;;;;;;5056098;28;25053;-61
2022/05/20 03:36:42;;;;;;;86.07;53.78;;;13.20;99.90;;;;;;5055812;28;25059;-60
2022/05/20 03:39:10;;;;;;;86.20;53.58;;;13.30;99.90;;;;;;5056899;28;25057;-60
2022/05/20 03:41:38;;;;;;;77.15;52.00;;;13.30;99.90;;;;;;5056063;28;25112;-60
2022/05/20 03:44:04;;;;;;;93.05;56.83;;;13.30;99.90;;;;;;5055668;28;25068;-60
2022/05/20 03:46:31;;;;;;;87.93;56.83;;;13.40;99.90;;;;;;5055754;28;25145;-60
2022/05/20 03:49:00;;;;;;;104.40;60.67;;;13.40;99.90;;;;;;5055705;28;25096;-60
2022/05/20 03:51:26;;;;;;;105.78;62.72;;;13.40;99.90;;;;;;5055016;28;25088;-60
2022/05/20 03:53:52;;;;;;;145.93;72.07;;;13.50;99.90;;;;;;5054809;28;25087;-60
2022/05/20 03:56:17;;;;;;;156.70;77.47;;;13.50;99.90;;;;;;5056075;28;25152;-61
2022/05/20 03:58:43;;;;;;;130.52;73.80;;;13.60;99.90;;;;;;5053310;28;25164;-60
2022/05/20 04:03:56;;;;;;;124.78;71.60;;;13.60;99.90;;;;;;5055816;28;25058;-61
2022/05/20 04:06:22;;;;;;;139.63;76.47;;;13.70;99.90;;;;;;5054372;28;25086;-61
2022/05/20 04:08:48;;;;;;;191.30;82.55;;;13.80;99.90;;;;;;5055866;28;25092;-60
2022/05/20 04:11:14;;;;;;;146.63;79.28;;;13.70;99.90;;;;;;5056380;28;25102;-60
2022/05/20 04:13:41;;;;;;;153.45;84.25;;;13.70;99.90;;;;;;5054493;28;25068;-60
2022/05/20 04:16:09;;;;;;;143.10;80.40;;;13.70;99.90;;;;;;5055097;28;25060;-60
2022/05/20 04:18:35;;;;;;;145.70;84.38;;;13.70;99.90;;;;;;5053356;28;25078;-60
2022/05/20 04:21:01;;;;;;;157.35;87.88;;;13.80;99.90;;;;;;5055367;28;25136;-60
2022/05/20 04:23:27;;;;;;;163.07;88.13;;;13.80;99.90;;;;;;5053953;28;25061;-60
2022/05/20 04:25:52;;;;;;;153.60;85.13;;;13.90;99.90;;;;;;5054042;28;25088;-60
2022/05/20 04:28:18;;;;;;;154.45;84.97;;;13.90;99.90;;;;;;5055251;28;25076;-60
2022/05/20 04:30:44;;;;;;;127.95;77.05;;;13.80;99.90;;;;;;5053917;28;25068;-61
2022/05/20 04:33:10;;;;;;;151.57;84.43;;;13.80;99.90;;;;;;5051635;28;25110;-61
2022/05/20 04:35:35;;;;;;;143.88;81.68;;;13.90;99.90;;;;;;5053088;28;25083;-61
2022/05/20 04:38:01;;;;;;;136.55;81.07;;;13.80;99.90;;;;;;5052002;28;25111;-61
2022/05/20 04:40:27;;;;;;;131.90;79.63;;;13.80;99.90;;;;;;5051024;28;25075;-60
2022/05/20 04:46:56;;;;;;;134.85;77.35;;;14.00;99.90;;;;;;5052915;28;25065;-61
2022/05/20 04:48:32;;;;;;;133.38;77.78;;;13.90;99.90;;;;;;5051699;28;25106;-60
2022/05/20 04:50:57;;;;;;;115.07;71.38;;;13.90;99.90;;;;;;5052624;28;25095;-60
2022/05/20 04:56:07;;;;;;;99.65;66.82;;;14.10;99.90;;;;;;5049258;28;25074;-61
2022/05/20 04:58:32;;;;;;;137.20;79.57;;;14.20;99.90;;;;;;5049176;28;25162;-61
2022/05/20 05:00:58;;;;;;;115.10;71.20;;;14.10;99.90;;;;;;5054785;28;25055;-60
2022/05/20 05:03:24;;;;;;;105.65;68.47;;;14.20;99.90;;;;;;5067040;28;25055;-60
2022/05/20 05:05:49;;;;;;;113.75;71.47;;;14.20;99.90;;;;;;5055077;28;25130;-60
2022/05/20 05:08:16;;;;;;;122.55;72.85;;;14.20;99.90;;;;;;5054188;28;25106;-60
2022/05/20 05:10:43;;;;;;;110.00;72.13;;;14.30;99.90;;;;;;5054558;28;25124;-61
2022/05/20 05:13:09;;;;;;;123.15;71.85;;;14.20;99.90;;;;;;5052584;28;25117;-61
2022/05/20 05:15:38;;;;;;;113.93;69.55;;;14.20;99.90;;;;;;5054178;28;25052;-61
2022/05/20 05:18:14;;;;;;;113.00;69.43;;;14.20;99.90;;;;;;5053205;28;25087;-60
2022/05/20 05:20:46;;;;;;;101.90;70.07;;;14.20;99.90;;;;;;5054166;28;25161;-60
2022/05/20 05:23:12;;;;;;;112.57;69.75;;;14.30;99.90;;;;;;5054425;28;25071;-61
2022/05/20 05:25:38;;;;;;;92.35;61.70;;;14.40;99.90;;;;;;5054222;28;25078;-60
2022/05/20 05:28:05;;;;;;;94.03;63.65;;;14.50;99.90;;;;;;5055350;28;25059;-61
2022/05/20 05:30:30;;;;;;;90.22;62.17;;;14.70;99.90;;;;;;5054917;28;25112;-60
2022/05/20 05:32:56;;;;;;;77.80;55.78;;;14.90;99.90;;;;;;5054046;28;25067;-60
2022/05/20 05:35:24;;;;;;;83.13;56.78;;;14.90;99.90;;;;;;5054365;28;25055;-61
2022/05/20 05:37:51;;;;;;;70.45;50.75;;;15.00;99.90;;;;;;5054761;28;25104;-60
2022/05/20 05:40:19;;;;;;;58.05;43.95;;;15.00;99.90;;;;;;5053606;28;25065;-60
2022/05/20 05:42:45;;;;;;;56.10;42.25;;;15.10;99.90;;;;;;5034663;28;25073;-61
2022/05/20 05:45:13;;;;;;;59.92;44.90;;;15.10;99.90;;;;;;5054183;28;25060;-60
2022/05/20 05:47:39;;;;;;;59.20;45.80;;;15.00;99.90;;;;;;5053194;28;25094;-61
2022/05/20 05:50:05;;;;;;;58.22;43.28;;;15.00;99.90;;;;;;5053053;28;25083;-62
2022/05/20 05:52:31;;;;;;;57.35;44.38;;;15.00;99.90;;;;;;5035392;28;25075;-61
2022/05/20 05:54:56;;;;;;;53.35;41.67;;;15.00;99.90;;;;;;5054381;28;25053;-61
2022/05/20 05:57:22;;;;;;;56.30;42.88;;;15.10;99.90;;;;;;5054576;28;25082;-60
2022/05/20 05:59:47;;;;;;;49.08;37.50;;;15.10;99.90;;;;;;5054020;28;25076;-61
2022/05/20 06:02:13;;;;;;;47.00;35.90;;;15.20;99.90;;;;;;5053806;28;25059;-59
2022/05/20 06:04:38;;;;;;;44.55;37.42;;;15.20;99.90;;;;;;5054781;28;25074;-60
2022/05/20 06:07:05;;;;;;;51.97;37.28;;;15.10;99.90;;;;;;5055130;28;25137;-60
2022/05/20 06:09:31;;;;;;;41.95;33.55;;;15.30;99.90;;;;;;5055407;28;25092;-62
2022/05/20 06:11:57;;;;;;;43.40;32.97;;;15.40;99.90;;;;;;5053189;28;25068;-59
2022/05/20 06:14:23;;;;;;;40.17;30.10;;;15.60;99.90;;;;;;5053508;28;25084;-62
2022/05/20 06:16:48;;;;;;;39.03;27.58;;;15.90;99.90;;;;;;5052198;28;25062;-61
2022/05/20 06:19:14;;;;;;;41.70;28.25;;;16.10;99.90;;;;;;5053362;28;25073;-60
2022/05/20 06:21:40;;;;;;;33.53;26.65;;;16.10;99.90;;;;;;5050520;28;25116;-60
2022/05/20 06:24:06;;;;;;;35.00;25.10;;;16.00;99.90;;;;;;5053285;28;25076;-60
2022/05/20 06:26:32;;;;;;;29.38;22.17;;;16.30;99.90;;;;;;5054030;28;25065;-61
2022/05/20 06:28:58;;;;;;;31.83;23.35;;;16.60;99.90;;;;;;5053381;28;25050;-61
2022/05/20 06:31:24;;;;;;;27.73;20.23;;;16.50;99.90;;;;;;5055083;28;25113;-61
2022/05/20 06:33:49;;;;;;;28.38;21.15;;;16.70;99.90;;;;;;5055772;28;25123;-61
2022/05/20 06:41:43;;;;;;;23.00;17.48;;;17.50;99.90;;;;;;5056420;28;25057;-60
2022/05/20 06:44:09;;;;;;;21.73;17.83;;;17.40;99.90;;;;;;5054305;28;25149;-60
2022/05/20 06:46:35;;;;;;;19.60;15.88;;;17.60;99.90;;;;;;5056561;28;25097;-61
2022/05/20 06:49:02;;;;;;;22.02;15.77;;;17.70;99.90;;;;;;5056919;28;25061;-60
2022/05/20 06:51:33;;;;;;;22.52;15.65;;;17.90;99.90;;;;;;5056202;28;25077;-60
2022/05/20 06:54:00;;;;;;;19.85;13.43;;;17.80;99.90;;;;;;5054815;28;25144;-60
2022/05/20 06:56:28;;;;;;;18.30;12.57;;;17.90;99.90;;;;;;5055691;28;25082;-60
2022/05/20 06:58:58;;;;;;;16.33;11.23;;;18.10;99.90;;;;;;5056281;28;25121;-61
2022/05/20 07:01:24;;;;;;;15.95;12.60;;;18.00;99.90;;;;;;5056751;28;25073;-60
2022/05/20 07:03:50;;;;;;;15.55;11.20;;;18.10;99.90;;;;;;5056539;28;25049;-61
2022/05/20 07:06:17;;;;;;;13.65;10.88;;;18.20;99.90;;;;;;5054840;28;25105;-61
2022/05/20 07:08:48;;;;;;;18.70;11.90;;;18.50;99.90;;;;;;5057240;28;25108;-61
2022/05/20 07:11:21;;;;;;;17.38;11.75;;;18.80;99.90;;;;;;5053983;28;25074;-60
2022/05/20 07:13:48;;;;;;;13.32;10.65;;;18.90;99.90;;;;;;5057003;28;25113;-60
2022/05/20 07:16:14;;;;;;;17.80;11.77;;;19.00;99.90;;;;;;5057587;28;25080;-60
2022/05/20 07:18:39;;;;;;;14.90;11.02;;;18.40;99.90;;;;;;5057209;28;25069;-60
2022/05/20 07:21:05;;;;;;;16.83;11.50;;;17.80;99.90;;;;;;5056800;28;25142;-61
2022/05/20 07:23:31;;;;;;;21.85;11.05;;;17.90;99.90;;;;;;5057157;28;25063;-60
2022/05/20 07:25:57;;;;;;;15.15;10.98;;;17.90;99.90;;;;;;5057089;28;25158;-61
2022/05/20 07:28:24;;;;;;;17.70;10.57;;;18.20;99.90;;;;;;5057278;28;25066;-60
2022/05/20 07:30:50;;;;;;;13.13;10.35;;;18.40;99.90;;;;;;5057297;28;25112;-61
2022/05/20 07:33:15;;;;;;;17.63;12.15;;;18.60;99.90;;;;;;5056600;28;25089;-60
2022/05/20 07:35:41;;;;;;;14.27;11.35;;;18.60;99.90;;;;;;5055516;28;25073;-61
2022/05/20 07:38:08;;;;;;;14.55;12.07;;;18.60;99.90;;;;;;5052003;28;25054;-61
2022/05/20 07:40:33;;;;;;;15.13;12.38;;;18.50;99.90;;;;;;5054424;28;25131;-62
2022/05/20 07:42:59;;;;;;;18.73;13.52;;;18.30;99.90;;;;;;5052995;28;25085;-61
2022/05/20 07:45:24;;;;;;;16.38;12.38;;;18.00;99.90;;;;;;5055968;28;25133;-60
2022/05/20 07:47:50;;;;;;;19.52;12.93;;;18.20;99.90;;;;;;5055765;28;25056;-60
2022/05/20 07:50:17;;;;;;;17.83;12.85;;;18.40;99.90;;;;;;5054728;28;25143;-60
2022/05/20 07:55:36;;;;;;;16.63;12.73;;;18.20;99.90;;;;;;5051177;28;25138;-61
2022/05/20 07:58:05;;;;;;;18.10;13.50;;;18.20;99.90;;;;;;5053111;28;25059;-60
2022/05/20 08:00:31;;;;;;;18.35;12.93;;;18.30;99.90;;;;;;5053888;28;25064;-59
2022/05/20 08:03:01;;;;;;;19.67;11.85;;;18.20;99.90;;;;;;5056023;28;25069;-60
2022/05/20 08:05:29;;;;;;;17.30;11.05;;;18.40;99.90;;;;;;5054891;28;25068;-60
2022/05/20 08:08:00;;;;;;;18.27;11.73;;;18.60;99.90;;;;;;5056769;28;25124;-59
2022/05/20 08:10:27;;;;;;;14.32;11.60;;;19.20;99.90;;;;;;5054632;28;25111;-60
2022/05/20 08:12:53;;;;;;;16.70;12.27;;;19.30;99.90;;;;;;5054677;28;25083;-60
2022/05/20 08:15:18;;;;;;;17.90;13.15;;;19.20;99.90;;;;;;5052667;28;25114;-59
2022/05/20 08:17:44;;;;;;;17.45;11.93;;;18.90;99.90;;;;;;5055314;28;25148;-60
2022/05/20 08:20:21;;;;;;;16.10;12.13;;;19.10;99.90;;;;;;5054300;28;25075;-60
2022/05/20 08:22:46;;;;;;;18.60;12.07;;;19.10;99.90;;;;;;5053772;28;25105;-61
2022/05/20 08:25:12;;;;;;;16.95;10.82;;;19.60;99.90;;;;;;5053483;28;25096;-60
2022/05/20 08:27:37;;;;;;;15.13;9.95;;;20.00;99.90;;;;;;5055362;28;25058;-60
2022/05/20 08:30:10;;;;;;;12.18;9.50;;;20.00;99.90;;;;;;5054176;28;25114;-61
2022/05/20 08:32:35;;;;;;;;;;;19.90;99.90;;;;;;5053934;28;25105;-61
2022/05/20 08:35:03;;;;;;;13.98;9.88;;;19.90;99.90;;;;;;5053087;28;25128;-61
2022/05/20 08:37:29;;;;;;;18.52;10.73;;;19.70;99.90;;;;;;5051106;28;25071;-60
2022/05/20 08:39:54;;;;;;;15.02;9.38;;;19.50;99.90;;;;;;5051180;28;25069;-60
2022/05/20 08:42:23;;;;;;;13.15;8.73;;;19.20;99.90;;;;;;5051964;28;25150;-60
2022/05/20 08:44:49;;;;;;;16.92;9.65;;;19.10;99.90;;;;;;5049750;28;25073;-61
2022/05/20 08:47:24;;;;;;;11.02;8.38;;;19.00;99.90;;;;;;5051782;28;25091;-61
2022/05/20 08:49:54;;;;;;;11.10;7.38;;;19.10;99.90;;;;;;5051797;28;25062;-60
2022/05/20 08:52:20;;;;;;;11.45;7.53;;;19.60;99.90;;;;;;5051885;28;25112;-60
2022/05/20 08:54:46;;;;;;;14.10;8.65;;;19.70;99.90;;;;;;5051853;28;25065;-63
2022/05/20 08:57:28;;;;;;;15.23;7.63;;;19.80;99.90;;;;;;5049260;28;25118;-61
2022/05/20 08:59:54;;;;;;;10.93;7.22;;;19.50;99.90;;;;;;5050479;28;25056;-61
2022/05/20 09:02:20;;;;;;;10.55;7.28;;;19.30;99.90;;;;;;5049827;28;25115;-61
2022/05/20 09:04:46;;;;;;;13.68;7.45;;;19.30;99.90;;;;;;5049470;28;25097;-61
2022/05/20 09:07:14;;;;;;;11.55;7.93;;;19.20;99.90;;;;;;5045586;28;25070;-61
2022/05/20 09:09:56;;;;;;;10.75;7.53;;;19.20;99.90;;;;;;5047380;28;25127;-61
2022/05/20 09:12:32;;;;;;;15.38;8.40;;;19.10;99.90;;;;;;5050146;28;25134;-60
2022/05/20 09:17:51;;;;;;;14.27;8.27;;;19.30;99.90;;;;;;5050177;28;25159;-60
2022/05/20 09:20:22;;;;;;;11.65;7.28;;;19.60;99.90;;;;;;5050476;28;25093;-61
2022/05/20 09:22:56;;;;;;;15.40;7.50;;;20.00;99.90;;;;;;5051328;28;25068;-60
2022/05/20 09:25:26;;;;;;;9.45;7.22;;;19.90;99.90;;;;;;5044836;28;25061;-60
2022/05/20 09:27:56;;;;;;;12.93;8.23;;;20.00;99.90;;;;;;5050300;28;25064;-61
2022/05/20 09:30:23;;;;;;;12.90;6.45;;;19.80;99.90;;;;;;5049606;28;25167;-61
2022/05/20 09:33:15;;;;;;;11.60;8.15;;;19.70;99.90;;;;;;5046970;28;25127;-61
2022/05/20 09:35:45;;;;;;;12.50;7.65;;;19.40;99.90;;;;;;5054575;28;25125;-61
2022/05/20 09:38:29;;;;;;;10.18;7.05;;;19.40;99.90;;;;;;5052406;28;25161;-61
2022/05/20 09:40:54;;;;;;;13.10;7.85;;;19.30;99.90;;;;;;5052244;28;25139;-62
2022/05/20 09:43:28;;;;;;;15.93;8.05;;;19.30;99.90;;;;;;5049560;28;25133;-61
2022/05/20 09:45:56;;;;;;;14.48;8.18;;;19.30;99.90;;;;;;5047829;28;25106;-62
2022/05/20 09:48:34;;;;;;;16.27;8.60;;;19.50;99.90;;;;;;5045941;28;25067;-60
2022/05/20 09:51:15;;;;;;;10.38;7.95;;;19.60;99.90;;;;;;5053449;28;25112;-60
2022/05/20 09:53:43;;;;;;;13.77;8.13;;;19.40;99.90;;;;;;5053671;28;25093;-60
2022/05/20 09:56:32;;;;;;;11.70;8.38;;;19.40;99.90;;;;;;5055124;28;25046;-60
2022/05/20 09:59:26;;;;;;;11.45;8.32;;;19.40;99.90;;;;;;5052727;28;25069;-60
2022/05/20 10:02:03;;;;;;;11.77;8.90;;;19.40;99.90;;;;;;5053830;28;25142;-60
2022/05/20 10:04:49;;;;;;;16.00;9.63;;;19.40;99.90;;;;;;5054142;28;25106;-60
2022/05/20 10:07:19;;;;;;;12.20;9.25;;;19.20;99.90;;;;;;5058216;28;25144;-60
2022/05/20 10:09:58;;;;;;;13.10;9.95;;;19.40;99.90;;;;;;5058946;28;25134;-62
2022/05/20 10:12:32;;;;;;;13.60;9.13;;;19.30;99.90;;;;;;5059119;28;25075;-61
2022/05/20 10:15:17;;;;;;;16.23;10.38;;;19.30;99.90;;;;;;5059633;28;25073;-61
2022/05/20 10:18:04;;;;;;;14.98;10.25;;;19.50;99.90;;;;;;5058818;28;25130;-61
2022/05/20 10:20:44;;;;;;;12.90;10.40;;;19.60;99.90;;;;;;5061082;28;25074;-59
2022/05/20 10:23:23;;;;;;;12.52;9.43;;;19.60;99.90;;;;;;5063470;28;25107;-60
2022/05/20 10:25:58;;;;;;;13.80;10.40;;;19.50;99.90;;;;;;5065857;28;25112;-61
2022/05/20 10:34:32;;;;;;;18.63;10.82;;;19.70;99.90;;;;;;5061457;28;25113;-60
2022/05/20 10:37:21;;;;;;;17.73;11.35;;;19.80;99.90;;;;;;5063304;28;25141;-60
2022/05/20 10:40:12;;;;;;;15.63;10.23;;;19.80;99.90;;;;;;5065070;28;25185;-60
2022/05/20 10:42:53;;;;;;;18.08;11.43;;;20.00;99.90;;;;;;5062430;28;25045;-60
2022/05/20 10:48:59;;;;;;;14.70;10.95;;;20.00;99.90;;;;;;5062636;28;25044;-61
2022/05/20 10:51:45;;;;;;;13.68;10.50;;;20.00;99.90;;;;;;5062403;28;25084;-61
2022/05/20 10:54:26;;;;;;;12.82;10.85;;;20.10;99.90;;;;;;5060777;28;25124;-61
2022/05/20 10:57:27;;;;;;;14.45;11.32;;;20.00;99.90;;;;;;5061513;28;25058;-61
2022/05/20 10:59:52;;;;;;;16.55;11.05;;;20.00;99.90;;;;;;5044284;28;25060;-62
2022/05/20 11:02:43;;;;;;;19.30;12.77;;;20.00;99.90;;;;;;5058448;28;25113;-61
2022/05/20 11:05:16;;;;;;;15.95;11.95;;;19.90;99.90;;;;;;5058076;28;25112;-61
2022/05/20 11:08:11;;;;;;;16.85;11.20;;;20.10;99.90;;;;;;5059258;28;25085;-61
2022/05/20 11:11:17;;;;;;;15.02;10.35;;;20.30;99.90;;;;;;5057916;28;25060;-62
2022/05/20 11:14:09;;;;;;;17.98;9.90;;;20.10;99.90;;;;;;5057615;28;25147;-61
2022/05/20 11:16:41;;;;;;;16.48;11.40;;;19.90;99.90;;;;;;5059075;28;25092;-61
2022/05/20 11:19:23;;;;;;;16.15;9.73;;;19.90;99.90;;;;;;5065369;28;25069;-61
2022/05/20 11:22:16;;;;;;;12.10;8.63;;;20.00;99.90;;;;;;5065682;28;25161;-61
2022/05/20 11:25:08;;;;;;;13.05;9.52;;;20.20;99.90;;;;;;5060423;28;25103;-61
2022/05/20 11:27:58;;;;;;;15.82;8.50;;;20.00;99.90;;;;;;5065024;28;25142;-61
2022/05/20 11:30:29;;;;;;;16.58;8.88;;;20.00;99.90;;;;;;5062637;28;25152;-61
2022/05/20 11:33:15;;;;;;;15.30;9.13;;;19.90;99.90;;;;;;5060417;28;25134;-61
2022/05/20 11:35:47;;;;;;;14.95;9.60;;;19.70;99.90;;;;;;5061332;28;25070;-61
2022/05/20 11:38:28;;;;;;;11.90;8.70;;;19.60;99.90;;;;;;5063977;28;25132;-60
2022/05/20 11:41:07;;;;;;;16.30;8.93;;;19.60;99.90;;;;;;5064092;28;25100;-62
2022/05/20 11:43:55;;;;;;;16.35;9.77;;;19.60;99.90;;;;;;5062707;28;25062;-60
2022/05/20 11:46:54;;;;;;;16.35;9.93;;;19.60;99.90;;;;;;5064984;28;25065;-61
2022/05/20 11:49:41;;;;;;;18.23;10.32;;;19.50;99.90;;;;;;5063420;28;25090;-61
2022/05/20 11:52:44;;;;;;;16.25;10.25;;;19.40;99.90;;;;;;5063154;28;25069;-62
2022/05/20 11:55:21;;;;;;;13.88;10.82;;;19.30;99.90;;;;;;5057885;28;25087;-61
2022/05/20 11:57:52;;;;;;;27.38;14.77;;;19.40;99.90;;;;;;5060158;28;25072;-61
2022/05/20 12:00:21;;;;;;;33.97;16.88;;;19.30;99.90;;;;;;5056959;28;25119;-62
2022/05/20 12:02:49;;;;;;;27.73;17.85;;;19.20;99.90;;;;;;5056886;28;25051;-62
2022/05/20 12:05:18;;;;;;;30.65;20.13;;;18.80;99.90;;;;;;5057588;28;25139;-61
2022/05/20 12:07:44;;;;;;;42.05;23.45;;;18.50;99.90;;;;;;5059463;28;25105;-62
2022/05/20 12:10:38;;;;;;;50.17;25.80;;;18.30;99.90;;;;;;5060032;28;25054;-61
2022/05/20 12:13:16;;;;;;;40.00;26.20;;;18.30;99.90;;;;;;5057510;28;25121;-68
2022/05/20 12:16:11;;;;;;;43.17;27.95;;;17.70;99.90;;;;;;5057086;28;25080;-64
2022/05/20 12:24:47;;;;;;;54.05;37.00;;;17.40;99.90;;;;;;5057991;28;25076;-64
2022/05/20 12:27:24;;;;;;;49.47;34.30;;;17.50;99.90;;;;;;5059940;28;25053;-62
2022/05/20 12:30:17;;;;;;;50.05;33.75;;;17.40;99.90;;;;;;5056589;28;25056;-62
2022/05/20 12:32:44;;;;;;;;;;;17.30;99.90;;;;;;5056664;28;25110;-63
2022/05/20 12:35:20;;;;;;;48.85;35.17;;;17.30;99.90;;;;;;5056835;28;25069;-63
2022/05/20 12:37:46;;;;;;;51.15;32.42;;;17.40;99.90;;;;;;5056098;28;25140;-63
2022/05/20 12:40:26;;;;;;;46.28;33.33;;;17.30;99.90;;;;;;5054873;28;25150;-61
2022/05/20 12:43:02;;;;;;;43.85;30.73;;;17.20;99.90;;;;;;5055110;28;25076;-61
2022/05/20 12:45:41;;;;;;;50.80;33.95;;;16.90;99.90;;;;;;5054752;28;25063;-61
2022/05/20 12:48:07;;;;;;;54.55;35.50;;;16.80;99.90;;;;;;5055898;28;25083;-62
2022/05/20 12:50:33;;;;;;;53.13;37.60;;;16.60;99.90;;;;;;5054329;28;25089;-62
2022/05/20 12:53:02;;;;;;;56.42;40.55;;;16.60;99.90;;;;;;5055413;28;25098;-62
2022/05/20 12:55:33;;;;;;;47.67;34.85;;;16.40;99.90;;;;;;5055132;28;25076;-62
2022/05/20 12:58:02;;;;;;;58.88;41.03;;;16.20;99.90;;;;;;5058082;28;25101;-63
2022/05/20 13:00:32;;;;;;;67.18;42.42;;;16.10;99.90;;;;;;5057518;28;25139;-62
2022/05/20 13:03:10;;;;;;;73.68;45.67;;;16.20;99.90;;;;;;5059853;28;25065;-62
2022/05/20 13:05:39;;;;;;;61.10;41.22;;;16.50;99.90;;;;;;5058282;28;25071;-62
2022/05/20 13:08:14;;;;;;;58.00;39.50;;;16.40;99.90;;;;;;5055480;28;25074;-63
2022/05/20 13:10:40;;;;;;;52.33;37.92;;;16.30;99.90;;;;;;5054808;28;25094;-64
2022/05/20 13:13:29;;;;;;;53.10;37.85;;;16.40;99.90;;;;;;5060916;28;25065;-62
2022/05/20 13:16:00;;;;;;;59.53;39.83;;;16.20;99.90;;;;;;5063092;28;25059;-63
2022/05/20 13:18:29;;;;;;;51.20;38.37;;;16.20;99.90;;;;;;5059352;28;25098;-64
2022/05/20 13:21:07;;;;;;;54.50;38.20;;;16.10;99.90;;;;;;5059156;28;25156;-63
2022/05/20 13:23:39;;;;;;;53.28;38.55;;;16.00;99.90;;;;;;5054925;28;25097;-63
2022/05/20 13:26:17;;;;;;;58.53;37.33;;;16.00;99.90;;;;;;5055564;28;25053;-62
2022/05/20 13:28:42;;;;;;;50.22;36.78;;;16.00;99.90;;;;;;5054614;28;25051;-62